Time;durP1;ratioP1;P1;durP2;ratioP2;P2;SDS_P1;SDS_P2;PMS_P1;PMS_P2;Temp;Humidity;BMP_temperature;BMP_pressure;BME280_temperature;BME280_humidity;BME280_pressure;Samples;Min_cycle;Max_cycle;Signal;HPM_P1;HPM_P2
2023/01/24 00:00:55;;;;;;;12.65;8.43;;;;;;;14.63;50.18;104022.78;5121083;27;20082;-35
2023/01/24 00:03:22;;;;;;;12.25;7.85;;;;;;;14.64;50.14;104019.22;5118768;27;20078;-36
2023/01/24 00:05:49;;;;;;;12.07;7.75;;;;;;;14.62;49.80;104027.25;5119945;27;20070;-35
2023/01/24 00:08:22;;;;;;;12.93;7.30;;;;;;;14.60;49.40;104021.13;5116118;27;20051;-38
2023/01/24 00:10:57;;;;;;;13.82;8.80;;;;;;;14.61;49.99;104022.84;5120533;27;20047;-35
2023/01/24 00:13:24;;;;;;;11.38;7.75;;;;;;;14.61;49.52;104022.84;5119680;27;20046;-36
2023/01/24 00:15:50;;;;;;;12.90;8.45;;;;;;;14.61;50.29;104022.84;5119686;27;20054;-38
2023/01/24 00:18:17;;;;;;;11.90;7.50;;;;;;;14.60;50.29;104022.91;5119912;27;20062;-35
2023/01/24 00:20:43;;;;;;;12.82;7.63;;;;;;;14.59;49.74;104022.00;5119291;27;20521;-34
2023/01/24 00:23:10;;;;;;;13.60;8.20;;;;;;;14.56;49.83;104015.00;5119299;27;20081;-35
2023/01/24 00:25:36;;;;;;;12.68;8.57;;;;;;;14.57;49.66;104013.19;5120460;27;20050;-35
2023/01/24 00:28:03;;;;;;;13.55;8.38;;;;;;;14.57;50.17;104019.41;5117925;27;20055;-35
2023/01/24 00:30:30;;;;;;;11.57;7.85;;;;;;;14.55;50.51;104015.94;5118814;27;20632;-36
2023/01/24 00:32:56;;;;;;;13.02;7.75;;;;;;;14.55;50.46;104020.38;5118221;27;20058;-35
2023/01/24 00:35:23;;;;;;;12.45;7.53;;;;;;;14.53;49.83;104020.44;5120204;27;20346;-34
2023/01/24 00:37:50;;;;;;;13.18;8.48;;;;;;;14.54;50.23;104014.16;5120131;27;20388;-34
2023/01/24 00:40:16;;;;;;;12.07;7.55;;;;;;;14.54;49.84;104019.50;5118922;27;20066;-36
2023/01/24 00:42:43;;;;;;;12.68;8.35;;;;;;;14.53;49.71;104012.44;5117960;27;20054;-36
2023/01/24 00:45:09;;;;;;;12.25;8.10;;;;;;;14.53;49.66;104017.78;5117769;27;20453;-35
2023/01/24 00:47:36;;;;;;;11.88;7.70;;;;;;;14.53;50.55;104016.91;5118069;27;20048;-37
2023/01/24 00:50:03;;;;;;;11.25;7.25;;;;;;;14.53;50.34;104008.91;5118498;27;20096;-35
2023/01/24 00:52:29;;;;;;;11.45;7.57;;;;;;;14.53;50.25;104001.75;5118400;27;20051;-36
2023/01/24 00:54:56;;;;;;;12.57;7.72;;;;;;;14.53;49.88;104001.75;5117341;27;20051;-35
2023/01/24 00:57:24;;;;;;;12.38;8.50;;;;;;;14.54;49.65;103998.16;5118331;27;20047;-36
2023/01/24 00:59:50;;;;;;;12.20;7.53;;;;;;;14.55;50.03;103994.59;5117279;27;20070;-36
2023/01/24 01:02:17;;;;;;;12.43;7.32;;;;;;;14.55;49.53;103999.03;5117038;27;20078;-35
2023/01/24 01:04:43;;;;;;;11.50;7.20;;;;;;;14.56;50.15;103998.13;5116582;27;20458;-37
2023/01/24 01:07:10;;;;;;;11.65;7.40;;;;;;;14.57;50.29;103997.19;5118537;27;20062;-35
2023/01/24 01:09:36;;;;;;;11.70;7.68;;;;;;;14.57;49.92;103997.19;5116872;27;20550;-35
2023/01/24 01:12:03;;;;;;;11.57;7.25;;;;;;;14.56;50.47;103979.44;5118465;27;20430;-35
2023/01/24 01:14:30;;;;;;;10.18;6.68;;;;;;;14.57;49.49;103983.84;5116841;27;20055;-35
2023/01/24 01:16:56;;;;;;;10.32;6.93;;;;;;;14.57;50.31;103989.19;5116401;27;20048;-35
2023/01/24 01:19:23;;;;;;;11.20;7.07;;;;;;;14.59;49.96;103991.78;5118771;27;20104;-37
2023/01/24 01:21:50;;;;;;;11.93;7.28;;;;;;;14.58;50.31;103985.56;5116939;27;20044;-35
2023/01/24 01:24:17;;;;;;;10.95;7.05;;;;;;;14.57;49.80;103992.72;5116990;27;20043;-36
2023/01/24 01:26:43;;;;;;;10.95;7.40;;;;;;;14.56;50.34;103985.66;5116684;27;20059;-35
2023/01/24 01:29:10;;;;;;;10.23;6.60;;;;;;;14.56;49.45;103995.44;5117624;27;20062;-36
2023/01/24 01:31:36;;;;;;;9.82;6.75;;;;;;;14.56;50.34;103998.13;5117245;27;20093;-35
2023/01/24 01:34:03;;;;;;;12.48;7.60;;;;;;;14.55;49.51;103997.25;5126534;27;20055;-35
2023/01/24 01:36:30;;;;;;;9.75;6.45;;;;;;;14.55;50.12;103994.59;5129729;27;20046;-35
2023/01/24 01:38:56;;;;;;;10.93;6.80;;;;;;;14.55;50.16;103991.00;5127241;27;20427;-36
2023/01/24 01:41:23;;;;;;;9.70;7.00;;;;;;;14.54;50.02;103990.16;5127629;27;20053;-35
2023/01/24 01:46:49;;;;;;;10.07;6.80;;;;;;;14.52;50.47;103988.47;5129658;27;20126;-36
2023/01/24 01:49:24;;;;;;;10.30;7.30;;;;;;;14.53;50.50;103987.53;5126445;27;20049;-36
2023/01/24 01:51:55;;;;;;;9.65;6.25;;;;;;;14.53;49.47;103991.09;5125360;27;20061;-38
2023/01/24 01:54:34;;;;;;;9.05;6.55;;;;;;;14.51;50.64;103997.38;5124850;27;20055;-39
2023/01/24 01:57:05;;;;;;;12.05;6.70;;;;;;;14.51;50.18;103992.94;5127674;27;20442;-37
2023/01/24 01:59:43;;;;;;;10.30;6.60;;;;;;;14.50;49.94;103985.84;5127423;27;20433;-35
2023/01/24 02:02:11;;;;;;;9.48;6.45;;;;;;;14.51;49.75;103992.94;5125162;27;20233;-36
2023/01/24 02:04:41;;;;;;;10.57;7.07;;;;;;;14.50;50.53;103987.63;5124514;27;20426;-36
2023/01/24 02:07:24;;;;;;;11.13;6.93;;;;;;;14.49;50.16;103986.78;5125139;27;20043;-36
2023/01/24 02:09:53;;;;;;;10.07;6.45;;;;;;;14.50;50.57;103988.50;5123193;27;20043;-35
2023/01/24 02:12:23;;;;;;;9.93;6.68;;;;;;;14.50;49.84;103988.50;5123709;27;20039;-35
2023/01/24 02:17:42;;;;;;;9.07;6.15;;;;;;;14.50;49.59;103976.97;5125710;27;20047;-35
2023/01/24 02:20:18;;;;;;;10.88;6.78;;;;;;;14.50;49.75;103983.16;5126785;27;20307;-35
2023/01/24 02:22:47;;;;;;;9.55;7.10;;;;;;;14.51;50.55;103982.28;5128043;27;20043;-36
2023/01/24 02:25:39;;;;;;;10.18;6.82;;;;;;;14.50;49.49;103975.16;5124494;27;20055;-35
2023/01/24 02:28:07;;;;;;;9.98;6.85;;;;;;;14.51;50.26;103974.25;5128354;27;20038;-37
2023/01/24 02:30:36;;;;;;;10.30;6.93;;;;;;;14.52;49.47;103977.81;5126155;27;20046;-35
2023/01/24 02:33:32;;;;;;;9.68;6.85;;;;;;;14.49;50.41;103986.78;5125110;27;20047;-35
2023/01/24 02:36:24;;;;;;;8.15;6.03;;;;;;;14.49;49.65;103973.44;5115105;27;20427;-35
2023/01/24 02:38:57;;;;;;;9.25;6.32;;;;;;;14.51;50.48;103984.03;5120898;27;20531;-39
2023/01/24 02:41:28;;;;;;;8.55;6.10;;;;;;;14.52;50.41;103981.34;5124641;27;20392;-38
2023/01/24 02:44:00;;;;;;;9.35;6.25;;;;;;;14.50;50.24;103982.31;5124599;27;20043;-36
2023/01/24 02:46:30;;;;;;;9.05;6.47;;;;;;;14.50;50.44;103984.97;5129918;27;20046;-36
2023/01/24 02:48:56;;;;;;;8.10;5.80;;;;;;;14.51;50.45;103986.72;5130690;27;20073;-35
2023/01/24 02:54:08;;;;;;;9.65;6.40;;;;;;;14.50;49.53;103985.84;5126108;27;20058;-36
2023/01/24 02:59:36;;;;;;;9.98;6.93;;;;;;;14.49;50.53;103981.44;5086260;28;20063;-35
2023/01/24 03:02:03;;;;;;;8.27;5.47;;;;;;;14.49;50.55;103972.56;5113488;27;20070;-36
2023/01/24 03:04:30;;;;;;;8.18;5.30;;;;;;;14.49;49.61;103973.44;5125687;27;20107;-35
2023/01/24 03:06:56;;;;;;;6.78;5.78;;;;;;;14.48;49.74;103974.34;5123654;27;20040;-34
2023/01/24 03:09:33;;;;;;;8.20;5.78;;;;;;;14.49;49.71;103972.56;5126391;28;20315;-34
2023/01/24 03:36:48;;;;;;;8.10;5.75;;;;;;;14.42;50.17;103963.84;5130997;27;20051;-34
2023/01/24 03:42:00;;;;;;;8.18;5.72;;;;;;;14.43;49.92;103959.38;5130689;27;20358;-35
2023/01/24 03:44:28;;;;;;;8.30;5.70;;;;;;;14.43;49.68;103962.06;5130371;27;20330;-34
2023/01/24 03:46:54;;;;;;;9.63;5.72;;;;;;;14.43;49.81;103962.94;5126075;27;20047;-34
2023/01/24 03:54:51;;;;;;;8.07;5.57;;;;;;;14.46;49.90;103961.94;5124277;27;20447;-35
2023/01/24 03:57:19;;;;;;;7.50;5.35;;;;;;;14.46;50.52;103969.97;5131269;27;20415;-35
2023/01/24 03:59:45;;;;;;;7.93;5.22;;;;;;;14.47;49.87;103969.03;5128611;27;20047;-35
2023/01/24 04:02:12;;;;;;;6.65;4.93;;;;;;;14.47;50.03;103969.03;5132196;27;20043;-35
2023/01/24 04:07:23;;;;;;;7.50;5.22;;;;;;;14.46;49.95;103968.16;5129878;27;20055;-35
2023/01/24 04:09:53;;;;;;;7.75;5.78;;;;;;;14.47;49.92;103966.34;5131353;27;20090;-34
2023/01/24 04:12:20;;;;;;;6.75;4.75;;;;;;;14.46;50.04;103976.16;5126922;27;20635;-35
2023/01/24 04:14:46;;;;;;;7.82;5.65;;;;;;;14.47;50.63;103966.34;5127265;27;20057;-35
2023/01/24 04:17:13;;;;;;;6.32;4.63;;;;;;;14.46;50.41;103969.97;5127228;27;20430;-36
2023/01/24 04:19:39;;;;;;;7.28;5.32;;;;;;;14.46;50.50;103969.97;5129558;27;20076;-35
2023/01/24 04:22:06;;;;;;;6.72;5.10;;;;;;;14.45;49.91;103974.44;5129535;27;20358;-37
2023/01/24 04:24:32;;;;;;;6.53;4.72;;;;;;;14.44;49.80;103972.69;5128293;27;20043;-37
2023/01/24 04:26:59;;;;;;;6.10;4.75;;;;;;;14.44;49.68;103974.50;5130168;27;20051;-35
2023/01/24 04:29:25;;;;;;;7.07;5.10;;;;;;;14.43;50.02;103972.72;5130771;27;20054;-35
2023/01/24 04:31:52;;;;;;;8.00;5.28;;;;;;;14.43;49.85;103978.06;5130214;27;20434;-35
2023/01/24 04:34:19;;;;;;;6.75;4.95;;;;;;;14.41;49.78;103977.25;5129351;27;20429;-35
2023/01/24 04:36:45;;;;;;;5.75;4.30;;;;;;;14.40;49.82;103973.72;5130336;27;20047;-37
2023/01/24 04:39:12;;;;;;;7.20;4.95;;;;;;;14.40;49.68;103978.19;5123437;27;20069;-35
2023/01/24 04:41:38;;;;;;;7.45;5.32;;;;;;;14.40;50.70;103978.19;5127745;27;20062;-35
2023/01/24 04:44:05;;;;;;;9.02;5.35;;;;;;;14.39;50.15;103976.44;5127691;27;20515;-35
2023/01/24 04:46:31;;;;;;;7.15;5.18;;;;;;;14.39;50.62;103980.00;5131014;27;20370;-35
2023/01/24 04:48:58;;;;;;;7.00;5.15;;;;;;;14.39;49.68;103987.09;5125428;27;20058;-36
2023/01/24 04:51:24;;;;;;;6.45;5.18;;;;;;;14.39;50.06;103985.34;5131081;27;20050;-36
2023/01/24 04:53:51;;;;;;;6.63;4.90;;;;;;;14.38;50.69;103988.91;5124685;27;20051;-35
2023/01/24 04:56:18;;;;;;;6.63;4.68;;;;;;;14.40;50.65;103987.06;5127839;27;20051;-35
2023/01/24 04:58:44;;;;;;;6.85;5.10;;;;;;;14.41;50.67;103993.28;5128568;27;20040;-38
2023/01/24 05:01:11;;;;;;;8.82;5.00;;;;;;;14.42;49.89;103995.00;5127684;27;20067;-35
2023/01/24 05:03:37;;;;;;;6.28;5.03;;;;;;;14.42;50.25;103997.69;5127683;27;20043;-35
2023/01/24 05:06:04;;;;;;;6.50;4.47;;;;;;;14.43;50.24;103994.06;5127249;27;20055;-35
2023/01/24 05:08:30;;;;;;;7.00;4.93;;;;;;;14.44;50.01;104001.19;5126506;27;20043;-35
2023/01/24 05:11:02;;;;;;;6.13;4.53;;;;;;;14.43;49.82;103999.41;5127980;27;20065;-35
2023/01/24 05:13:28;;;;;;;7.32;4.82;;;;;;;14.44;50.16;103996.72;5125792;27;20126;-34
2023/01/24 05:15:55;;;;;;;6.57;4.70;;;;;;;14.43;49.74;103988.75;5125593;27;20346;-35
2023/01/24 05:18:22;;;;;;;6.53;4.60;;;;;;;14.43;50.45;103992.31;5127476;27;20051;-35
2023/01/24 05:20:48;;;;;;;6.13;4.70;;;;;;;14.43;50.33;103996.75;5126961;27;20039;-34
2023/01/24 05:23:15;;;;;;;6.45;4.47;;;;;;;14.42;50.56;103992.34;5127204;27;20050;-35
2023/01/24 05:25:42;;;;;;;7.20;5.25;;;;;;;14.42;49.61;103995.00;5124594;27;20039;-35
2023/01/24 05:28:08;;;;;;;6.97;5.03;;;;;;;14.42;50.52;103995.00;5129383;27;20054;-36
2023/01/24 05:30:35;;;;;;;5.72;4.35;;;;;;;14.42;50.18;104001.22;5128080;27;20047;-36
2023/01/24 05:33:03;;;;;;;6.30;4.65;;;;;;;14.43;50.45;104008.31;5125823;27;20129;-36
2023/01/24 05:35:30;;;;;;;5.97;4.70;;;;;;;14.42;50.25;104003.00;5126703;27;20120;-35
2023/01/24 05:37:56;;;;;;;5.90;4.45;;;;;;;14.43;50.63;104004.75;5127543;27;20047;-36
2023/01/24 05:40:23;;;;;;;5.97;4.40;;;;;;;14.42;49.84;104011.03;5128027;27;20047;-36
2023/01/24 05:42:49;;;;;;;6.53;4.68;;;;;;;14.42;50.02;104011.88;5125455;27;20127;-36
2023/01/24 05:45:16;;;;;;;5.47;4.35;;;;;;;14.42;49.66;104011.03;5127620;27;20055;-36
2023/01/24 05:47:42;;;;;;;5.65;3.97;;;;;;;14.41;50.50;104012.81;5128941;27;20058;-36
2023/01/24 05:50:09;;;;;;;6.07;4.13;;;;;;;14.41;49.81;104015.50;5129021;27;20058;-36
2023/01/24 05:52:36;;;;;;;5.25;4.20;;;;;;;14.40;50.05;104008.41;5125560;27;20055;-35
2023/01/24 05:55:03;;;;;;;6.20;3.95;;;;;;;14.41;50.48;104017.28;5124901;27;20051;-35
2023/01/24 05:57:30;;;;;;;6.18;4.18;;;;;;;14.40;50.07;104012.88;5125227;27;20051;-35
2023/01/24 05:59:57;;;;;;;5.30;4.15;;;;;;;14.39;50.13;104014.69;5124050;27;20419;-35
2023/01/24 06:02:24;;;;;;;5.15;3.85;;;;;;;14.40;50.09;104018.22;5125970;27;20043;-35
2023/01/24 06:04:50;;;;;;;6.03;4.28;;;;;;;14.39;50.76;104008.44;5125862;27;20069;-36
2023/01/24 06:07:17;;;;;;;6.53;4.60;;;;;;;14.38;50.47;104012.91;5126091;27;20087;-35
2023/01/24 06:09:43;;;;;;;6.88;4.65;;;;;;;14.38;49.86;104017.38;5126621;27;20054;-36
2023/01/24 06:12:10;;;;;;;4.53;3.80;;;;;;;14.37;49.97;104011.19;5126893;27;20043;-35
2023/01/24 06:14:36;;;;;;;5.45;4.00;;;;;;;14.37;49.95;104010.31;5127067;27;20063;-35
2023/01/24 06:17:03;;;;;;;5.07;4.15;;;;;;;14.36;50.12;104008.56;5127445;27;20047;-36
2023/01/24 06:19:30;;;;;;;5.50;4.40;;;;;;;14.36;50.13;104009.44;5125653;27;20056;-36
2023/01/24 06:22:33;;;;;;;6.30;4.57;;;;;;;14.33;49.93;104014.88;5128783;27;20054;-36
2023/01/24 06:25:00;;;;;;;5.57;3.95;;;;;;;14.36;50.49;104019.25;5126446;27;20039;-36
2023/01/24 06:27:26;;;;;;;4.78;3.88;;;;;;;14.35;49.97;104022.81;5127248;27;20074;-36
2023/01/24 06:29:53;;;;;;;7.25;4.32;;;;;;;14.32;49.93;104024.69;5129079;27;20126;-35
2023/01/24 06:32:44;;;;;;;6.32;4.15;;;;;;;14.31;50.67;104030.06;5125937;27;20057;-36
2023/01/24 06:35:11;;;;;;;5.28;4.18;;;;;;;14.32;50.44;104030.03;5126973;27;20047;-35
2023/01/24 06:37:48;;;;;;;6.05;4.20;;;;;;;14.31;50.84;104032.72;5130487;27;20046;-35
2023/01/24 06:40:17;;;;;;;5.25;3.92;;;;;;;14.30;50.07;104031.84;5122992;27;20061;-35
2023/01/24 06:42:45;;;;;;;6.22;4.47;;;;;;;14.29;50.01;104027.44;5127922;27;20043;-36
2023/01/24 06:45:12;;;;;;;5.70;4.32;;;;;;;14.30;50.66;104041.66;5124368;27;20051;-35
2023/01/24 06:47:39;;;;;;;6.18;4.70;;;;;;;14.30;50.44;104030.97;5127738;27;20047;-36
2023/01/24 06:50:08;;;;;;;6.80;4.63;;;;;;;14.31;49.93;104030.94;5128612;27;20047;-36
2023/01/24 06:52:35;;;;;;;5.28;3.75;;;;;;;14.30;50.45;104031.84;5124932;27;20325;-35
2023/01/24 06:55:01;;;;;;;5.63;4.15;;;;;;;14.31;50.08;104033.63;5126186;27;20047;-35
2023/01/24 06:57:28;;;;;;;6.25;4.63;;;;;;;14.32;50.47;104040.69;5126692;27;20053;-35
2023/01/24 06:59:54;;;;;;;4.95;3.90;;;;;;;14.32;50.58;104038.03;5125622;27;20051;-35
2023/01/24 07:02:21;;;;;;;4.63;4.00;;;;;;;14.33;50.28;104039.75;5126082;27;20346;-36
2023/01/24 07:04:47;;;;;;;5.75;3.92;;;;;;;14.35;50.21;104045.03;5126871;27;20130;-35
2023/01/24 07:07:14;;;;;;;4.63;4.00;;;;;;;14.35;50.73;104046.84;5122547;27;20497;-36
2023/01/24 07:09:40;;;;;;;6.07;4.45;;;;;;;14.35;49.88;104042.38;5124106;27;20047;-36
2023/01/24 07:12:07;;;;;;;6.28;4.50;;;;;;;14.36;49.95;104051.28;5123797;28;20057;-35
2023/01/24 07:14:33;;;;;;;6.25;4.43;;;;;;;14.37;50.42;104047.66;5127568;27;20059;-35
2023/01/24 07:17:00;;;;;;;5.18;3.95;;;;;;;14.35;49.82;104039.69;5126266;28;20055;-36
2023/01/24 07:19:27;;;;;;;5.80;4.30;;;;;;;14.33;49.78;104050.44;5122950;28;20043;-36
2023/01/24 07:21:56;;;;;;;5.60;4.47;;;;;;;14.35;49.89;104060.19;5125463;28;20043;-38
2023/01/24 07:24:26;;;;;;;5.32;4.20;;;;;;;14.33;49.88;104063.78;5123958;28;20040;-37
2023/01/24 07:26:53;;;;;;;5.88;4.45;;;;;;;14.33;50.63;104060.25;5124180;27;20051;-38
2023/01/24 07:29:20;;;;;;;6.07;4.40;;;;;;;14.32;50.24;104051.38;5124207;28;20043;-35
2023/01/24 07:31:48;;;;;;;5.38;4.30;;;;;;;14.31;50.72;104060.31;5120768;28;20062;-34
2023/01/24 07:34:16;;;;;;;5.05;4.30;;;;;;;14.30;50.68;104063.88;5124233;28;20303;-38
2023/01/24 07:36:45;;;;;;;8.43;5.22;;;;;;;14.30;50.09;104065.66;5125672;27;20071;-35
2023/01/24 07:39:12;;;;;;;5.95;4.50;;;;;;;14.29;50.17;104059.47;5122347;28;20167;-36
2023/01/24 07:41:42;;;;;;;6.15;4.78;;;;;;;14.29;49.88;104062.13;5126679;28;20121;-35
2023/01/24 07:44:08;;;;;;;6.75;5.28;;;;;;;14.29;50.23;104066.59;5122571;27;20051;-35
2023/01/24 07:46:35;;;;;;;5.68;4.53;;;;;;;14.29;50.65;104070.13;5124094;27;20072;-35
2023/01/24 07:49:02;;;;;;;5.82;4.45;;;;;;;14.29;50.91;104072.81;5124978;28;20043;-35
2023/01/24 07:51:29;;;;;;;5.95;4.63;;;;;;;14.28;50.47;104076.41;5123384;27;20069;-34
2023/01/24 07:53:56;;;;;;;4.93;4.10;;;;;;;14.28;50.45;104075.53;5124380;28;20162;-35
2023/01/24 07:56:22;;;;;;;4.68;3.85;;;;;;;14.28;50.08;104075.53;5123625;28;20125;-36
2023/01/24 07:58:52;;;;;;;5.03;4.05;;;;;;;14.28;50.84;104076.41;5125911;27;20039;-34
2023/01/24 08:01:21;;;;;;;5.55;4.55;;;;;;;14.28;50.91;104076.41;5124284;27;20440;-34
2023/01/24 08:03:49;;;;;;;5.18;4.20;;;;;;;14.28;50.88;104076.41;5126173;27;20464;-34
2023/01/24 08:06:17;;;;;;;5.68;4.35;;;;;;;14.28;50.57;104081.75;5122648;28;20054;-35
2023/01/24 08:08:43;;;;;;;6.35;4.53;;;;;;;14.28;50.85;104079.06;5122882;27;20043;-38
2023/01/24 08:11:13;;;;;;;5.25;4.07;;;;;;;14.27;50.00;104080.00;5127955;27;20088;-35
2023/01/24 08:13:40;;;;;;;5.10;4.10;;;;;;;14.28;50.34;104089.75;5131622;27;20432;-34
2023/01/24 08:16:07;;;;;;;5.75;4.07;;;;;;;14.28;50.04;104088.88;5125791;27;20043;-35
2023/01/24 08:18:34;;;;;;;5.00;4.00;;;;;;;14.27;50.37;104085.34;5128659;27;20100;-36
2023/01/24 08:21:00;;;;;;;6.22;4.13;;;;;;;14.26;51.09;104091.56;5126966;27;20058;-35
2023/01/24 08:23:27;;;;;;;6.18;4.53;;;;;;;14.26;50.21;104088.91;5127229;27;20047;-35
2023/01/24 08:25:53;;;;;;;5.50;4.35;;;;;;;14.26;50.64;104091.56;5130383;27;20049;-36
2023/01/24 08:28:20;;;;;;;4.50;3.83;;;;;;;14.27;50.21;104095.09;5129720;27;20394;-36
2023/01/24 08:30:46;;;;;;;6.30;4.43;;;;;;;14.25;50.96;104091.63;5128119;27;20053;-35
2023/01/24 08:33:17;;;;;;;5.03;4.05;;;;;;;14.24;50.36;104093.44;5123249;27;20066;-38
2023/01/24 08:35:48;;;;;;;6.13;4.40;;;;;;;14.24;50.81;104096.09;5125965;27;20079;-36
2023/01/24 08:38:15;;;;;;;8.02;4.60;;;;;;;14.26;50.64;104107.59;5122840;27;20451;-35
2023/01/24 08:40:42;;;;;;;5.40;4.28;;;;;;;14.25;50.26;104108.50;5123248;27;20137;-35
2023/01/24 08:43:15;;;;;;;5.40;4.38;;;;;;;14.24;50.61;104111.25;5122354;27;20130;-35
2023/01/24 08:45:42;;;;;;;4.72;4.03;;;;;;;14.24;50.59;104109.44;5128480;27;20055;-34
2023/01/24 08:48:08;;;;;;;7.38;4.35;;;;;;;14.24;50.57;104112.09;5125455;27;20315;-36
2023/01/24 08:50:35;;;;;;;5.68;4.72;;;;;;;14.24;50.80;104117.44;5123902;27;20442;-34
2023/01/24 08:53:01;;;;;;;6.25;4.68;;;;;;;14.24;50.86;104114.78;5121423;27;20387;-34
2023/01/24 08:55:28;;;;;;;6.38;4.88;;;;;;;14.25;50.52;104115.66;5125080;27;20315;-36
2023/01/24 08:58:03;;;;;;;7.15;4.80;;;;;;;14.24;50.74;104117.44;5122399;27;20058;-35
2023/01/24 09:00:30;;;;;;;5.68;4.60;;;;;;;14.24;50.24;104117.44;5122999;27;20061;-35
2023/01/24 09:03:00;;;;;;;6.65;4.35;;;;;;;14.24;50.18;104117.44;5127532;27;20426;-35
2023/01/24 09:05:28;;;;;;;5.95;4.22;;;;;;;14.24;50.88;104117.44;5122879;27;20039;-35
2023/01/24 09:07:55;;;;;;;5.55;4.15;;;;;;;14.24;50.80;104117.44;5123015;27;20096;-36
2023/01/24 09:10:21;;;;;;;6.10;4.63;;;;;;;14.24;51.00;104121.91;5121153;27;20138;-34
2023/01/24 09:12:48;;;;;;;5.93;4.50;;;;;;;14.25;50.75;104124.50;5123440;27;20050;-34
2023/01/24 09:15:15;;;;;;;7.90;4.90;;;;;;;14.24;50.05;104122.78;5126681;27;20043;-35
2023/01/24 09:17:41;;;;;;;6.32;4.80;;;;;;;14.24;50.13;104132.59;5122789;27;20469;-35
2023/01/24 09:20:08;;;;;;;6.65;5.03;;;;;;;14.24;50.18;104137.91;5125823;27;20054;-35
2023/01/24 09:22:35;;;;;;;5.85;4.55;;;;;;;14.23;50.59;104131.72;5124822;27;20119;-35
2023/01/24 09:25:03;;;;;;;6.60;4.75;;;;;;;14.23;50.94;104131.72;5126178;27;20371;-34
2023/01/24 09:27:30;;;;;;;5.70;4.78;;;;;;;14.23;50.45;104136.16;5121281;27;20051;-35
2023/01/24 09:29:56;;;;;;;7.53;5.05;;;;;;;14.22;50.41;104134.41;5131622;27;20106;-35
2023/01/24 09:32:23;;;;;;;6.63;4.80;;;;;;;14.22;50.60;104135.28;5128762;27;20055;-35
2023/01/24 09:34:49;;;;;;;6.75;4.90;;;;;;;14.22;50.75;104145.09;5124170;27;20047;-35
2023/01/24 09:37:20;;;;;;;8.00;5.40;;;;;;;14.21;50.50;104138.00;5126717;27;20079;-37
2023/01/24 09:39:47;;;;;;;6.70;5.18;;;;;;;14.21;50.54;104138.88;5119062;27;20051;-35
2023/01/24 09:42:40;;;;;;;6.18;4.80;;;;;;;14.18;50.54;104140.75;5121424;27;20161;-35
2023/01/24 09:45:07;;;;;;;7.13;5.20;;;;;;;14.19;50.07;104146.06;5127478;27;20126;-35
2023/01/24 09:47:58;;;;;;;7.35;5.32;;;;;;;14.16;50.06;104153.28;5126748;27;20763;-38
2023/01/24 09:50:32;;;;;;;7.70;5.25;;;;;;;14.17;50.55;104150.56;5125704;27;20043;-36
2023/01/24 09:52:59;;;;;;;;;;;;;;;14.15;50.37;104149.75;5127064;27;20122;-35
2023/01/24 09:55:32;;;;;;;6.85;5.22;;;;;;;14.19;50.42;104148.75;5124346;27;19919;-36
2023/01/24 09:58:01;;;;;;;6.28;5.15;;;;;;;14.18;50.18;104148.75;5129924;27;20078;-35
2023/01/24 10:00:35;;;;;;;7.28;5.10;;;;;;;14.17;50.18;104152.38;5125971;27;20070;-36
2023/01/24 10:03:03;;;;;;;6.93;5.53;;;;;;;14.16;49.91;104147.97;5127392;27;20350;-36
2023/01/24 10:05:38;;;;;;;7.20;5.47;;;;;;;14.16;50.22;104151.50;5124947;27;20035;-36
2023/01/24 10:08:10;;;;;;;7.85;5.40;;;;;;;14.16;49.86;104151.50;5120249;27;20047;-37
2023/01/24 10:10:49;;;;;;;6.82;5.50;;;;;;;14.15;50.20;104154.19;5127712;27;20043;-38
2023/01/24 10:13:45;;;;;;;6.80;4.93;;;;;;;14.15;50.33;104159.53;5127094;27;20395;-36
2023/01/24 10:16:44;;;;;;;7.07;5.55;;;;;;;14.11;50.56;104156.09;5122471;27;20065;-35
2023/01/24 10:19:33;;;;;;;7.60;5.80;;;;;;;14.14;50.46;104150.66;5127505;27;20062;-35
2023/01/24 10:22:08;;;;;;;7.30;5.10;;;;;;;14.15;50.20;104152.41;5125934;27;20122;-35
2023/01/24 10:24:38;;;;;;;6.97;5.03;;;;;;;14.15;50.47;104151.53;5117768;27;20308;-34
2023/01/24 10:27:19;;;;;;;5.75;4.68;;;;;;;14.13;49.84;104151.59;5121345;27;20088;-35
2023/01/24 10:29:51;;;;;;;6.82;4.95;;;;;;;14.15;50.57;104148.84;5125524;27;20211;-35
2023/01/24 10:32:30;;;;;;;7.57;5.43;;;;;;;14.13;50.47;104146.25;5124063;27;20482;-35
2023/01/24 10:35:02;;;;;;;7.70;5.65;;;;;;;14.14;49.76;104153.31;5127071;27;20176;-35
2023/01/24 10:37:34;;;;;;;6.97;5.10;;;;;;;14.14;49.99;104147.97;5128770;27;20066;-36
2023/01/24 10:40:01;;;;;;;7.47;5.22;;;;;;;14.14;49.73;104145.31;5123337;27;20342;-35
2023/01/24 10:42:30;;;;;;;7.55;5.38;;;;;;;14.15;49.94;104148.84;5127854;27;20050;-34
2023/01/24 10:45:12;;;;;;;6.07;4.85;;;;;;;14.15;49.81;104148.84;5124561;27;20039;-35
2023/01/24 10:47:59;;;;;;;7.47;5.60;;;;;;;14.14;50.18;104137.31;5128722;27;20039;-36
2023/01/24 10:50:41;;;;;;;8.65;6.28;;;;;;;14.15;49.81;104138.19;5126346;27;20058;-35
2023/01/24 10:53:24;;;;;;;8.63;5.95;;;;;;;14.15;49.95;104138.19;5123595;27;20138;-36
2023/01/24 10:56:02;;;;;;;7.43;5.45;;;;;;;14.16;50.30;104138.16;5125677;27;20047;-34
2023/01/24 10:58:53;;;;;;;8.05;5.90;;;;;;;14.17;50.46;104131.03;5121244;27;20055;-35
2023/01/24 11:01:32;;;;;;;8.85;6.55;;;;;;;14.17;50.47;104126.56;5124595;27;20047;-35
2023/01/24 11:04:13;;;;;;;8.65;6.10;;;;;;;14.16;49.87;104118.63;5126732;27;20058;-35
2023/01/24 11:06:40;;;;;;;10.23;6.35;;;;;;;14.19;49.70;104118.50;5124111;27;20062;-34
2023/01/24 11:09:20;;;;;;;8.00;6.22;;;;;;;14.18;49.72;104116.75;5122824;27;20035;-34
2023/01/24 11:11:51;;;;;;;8.65;6.00;;;;;;;14.18;49.69;104109.63;5122631;27;20051;-35
2023/01/24 11:14:22;;;;;;;8.13;5.68;;;;;;;14.19;50.21;104108.72;5124493;27;20047;-35
2023/01/24 11:16:55;;;;;;;8.98;5.95;;;;;;;14.18;50.16;104114.94;5125080;27;20047;-34
2023/01/24 11:19:21;;;;;;;9.75;6.28;;;;;;;14.19;49.74;104106.06;5126175;28;20047;-35
2023/01/24 11:21:55;;;;;;;11.00;6.93;;;;;;;14.19;50.36;104108.72;5124940;27;20053;-35
2023/01/24 11:24:22;;;;;;;9.10;5.65;;;;;;;14.21;50.44;104116.66;5117645;27;20044;-36
2023/01/24 11:26:56;;;;;;;11.13;7.20;;;;;;;14.20;50.55;104114.94;5123511;27;20449;-35
2023/01/24 11:29:23;;;;;;;;;;;;;;;14.19;50.14;104105.16;5128051;28;20049;-35
2023/01/24 11:31:56;;;;;;;9.77;6.63;;;;;;;14.22;50.17;104103.25;5126657;28;19924;-35
2023/01/24 11:34:39;;;;;;;11.07;6.47;;;;;;;14.21;50.31;104108.66;5124331;28;20047;-35
2023/01/24 11:37:20;;;;;;;11.82;6.15;;;;;;;14.20;50.26;104098.91;5125653;27;20430;-35
2023/01/24 11:40:05;;;;;;;10.32;6.10;;;;;;;14.22;49.80;104099.72;5120604;28;20673;-36
2023/01/24 11:42:57;;;;;;;10.48;6.47;;;;;;;14.21;50.26;104093.53;5121429;28;20043;-35
2023/01/24 11:45:42;;;;;;;8.57;5.80;;;;;;;14.21;50.30;104090.84;5119821;27;20043;-35
2023/01/24 11:48:11;;;;;;;10.23;6.97;;;;;;;14.22;50.40;104099.72;5123722;27;20343;-36
2023/01/24 11:50:50;;;;;;;9.50;6.68;;;;;;;14.21;50.55;104093.53;5129049;27;20343;-36
2023/01/24 11:53:37;;;;;;;10.88;6.75;;;;;;;14.23;50.50;104089.03;5123398;27;20501;-35
2023/01/24 11:56:10;;;;;;;9.73;6.70;;;;;;;14.23;50.44;104091.69;5127204;27;20401;-35
2023/01/24 11:58:36;;;;;;;9.90;6.75;;;;;;;14.24;50.22;104084.56;5127435;27;21234;-36
2023/01/24 12:01:17;;;;;;;9.90;6.47;;;;;;;14.22;49.90;104076.59;5130607;27;21718;-38
2023/01/24 12:04:04;;;;;;;10.30;6.70;;;;;;;14.24;49.67;104076.56;5128546;27;20432;-37
2023/01/24 12:06:48;;;;;;;10.35;6.97;;;;;;;14.22;49.73;104076.59;5130738;27;20449;-38
2023/01/24 12:09:28;;;;;;;10.50;6.88;;;;;;;14.23;49.74;104074.78;5129567;27;20039;-38
2023/01/24 12:12:15;;;;;;;9.60;6.68;;;;;;;14.23;50.27;104057.00;5122374;27;20047;-35
2023/01/24 12:15:13;;;;;;;9.57;6.70;;;;;;;14.23;50.37;104066.78;5125286;27;20062;-36
2023/01/24 12:17:48;;;;;;;8.38;5.78;;;;;;;14.24;49.38;104064.09;5123708;27;20058;-34
2023/01/24 12:20:33;;;;;;;10.35;6.80;;;;;;;14.24;49.85;104058.75;5126546;27;20057;-37
2023/01/24 12:23:19;;;;;;;10.85;7.00;;;;;;;14.22;50.28;104057.03;5130537;27;20345;-35
2023/01/24 12:25:48;;;;;;;11.73;7.28;;;;;;;14.23;49.65;104050.78;5129228;27;20131;-34